Time;durP1;ratioP1;P1;durP2;ratioP2;P2;SDS_P1;SDS_P2;PMS_P1;PMS_P2;Temp;Humidity;BMP_temperature;BMP_pressure;BME280_temperature;BME280_humidity;BME280_pressure;Samples;Min_cycle;Max_cycle;Signal;HPM_P1;HPM_P2
2021/07/19 09:17:24;;;;;;;9.15;2.30;;;;;;;24.53;63.28;102190.72;5090122;27;20412;-70
2021/07/19 09:19:51;;;;;;;7.15;2.13;;;;;;;25.85;57.93;102184.22;5089915;28;20436;-69
2021/07/19 09:22:42;;;;;;;4.75;1.85;;;;;;;26.77;53.35;102193.50;5089972;28;20026;-71
2021/07/19 09:25:12;;;;;;;11.52;3.47;;;;;;;27.50;51.25;102190.72;5088685;28;20040;-70
2021/07/19 09:28:10;;;;;;;;;;;;;;;28.31;48.01;102168.91;5090281;28;20043;-71
2021/07/19 09:30:38;;;;;;;5.72;2.45;;;;;;;28.09;48.92;102171.66;5099658;28;19912;-71
2021/07/19 09:33:06;;;;;;;4.82;2.30;;;;;;;28.45;47.39;102178.13;5089804;28;20025;-71
2021/07/19 09:35:34;;;;;;;9.35;3.15;;;;;;;28.92;45.94;102178.91;5089618;28;20032;-72
2021/07/19 09:38:10;;;;;;;9.75;2.60;;;;;;;29.36;44.59;102176.78;5089722;28;20029;-71
2021/07/19 09:40:38;;;;;;;6.65;2.60;;;;;;;29.24;44.66;102175.22;5090026;28;20027;-75
2021/07/19 09:43:17;;;;;;;6.05;2.03;;;;;;;29.68;43.13;102168.22;5089876;28;20031;-72
2021/07/19 09:45:45;;;;;;;6.18;2.53;;;;;;;29.72;43.20;102171.81;5088332;28;20119;-71
2021/07/19 09:48:11;;;;;;;8.38;2.85;;;;;;;29.85;42.95;102170.09;5089593;28;20470;-72
2021/07/19 09:50:50;;;;;;;4.18;2.15;;;;;;;29.98;41.68;102174.06;5089501;28;20035;-72
2021/07/19 09:53:40;;;;;;;11.13;3.17;;;;;;;29.71;42.42;102171.03;5089539;28;20020;-72
2021/07/19 09:56:10;;;;;;;;;;;;;;;30.53;40.76;102175.25;5089726;28;20401;-75
2021/07/19 09:58:35;;;;;;;10.90;3.00;;;;;;;30.84;40.29;102170.59;5089360;28;19912;-72
2021/07/19 10:01:01;;;;;;;6.05;2.35;;;;;;;31.10;39.67;102172.69;5089286;28;20031;-75
2021/07/19 10:03:30;;;;;;;5.32;2.22;;;;;;;31.41;38.41;102181.22;5089299;28;20020;-72
2021/07/19 10:06:09;;;;;;;22.23;4.32;;;;;;;31.86;37.50;102164.09;5089140;28;20016;-72
2021/07/19 10:08:35;;;;;;;6.15;3.00;;;;;;;31.89;37.47;102166.88;5089506;28;20031;-71
2021/07/19 10:11:01;;;;;;;6.63;2.83;;;;;;;32.15;36.98;102167.28;5089117;28;20356;-71
2021/07/19 10:13:34;;;;;;;5.55;2.38;;;;;;;32.35;35.72;102159.72;5089101;28;20381;-71
2021/07/19 10:16:02;;;;;;;9.10;3.05;;;;;;;32.62;35.54;102165.28;5088686;28;20048;-71
2021/07/19 10:18:30;;;;;;;11.02;2.65;;;;;;;32.35;35.96;102159.72;5089062;28;20508;-71
2021/07/19 10:20:57;;;;;;;11.25;3.30;;;;;;;32.21;36.57;102160.72;5088931;28;20382;-71
2021/07/19 10:23:23;;;;;;;7.60;2.33;;;;;;;32.01;36.63;102165.47;5088941;28;20022;-75
2021/07/19 10:25:51;;;;;;;10.25;3.42;;;;;;;32.11;36.41;102166.53;5088658;28;20028;-78
2021/07/19 10:28:17;;;;;;;11.50;3.13;;;;;;;31.98;36.56;102167.16;5077416;28;20028;-71
2021/07/19 10:30:43;;;;;;;6.38;3.00;;;;;;;32.34;36.09;102158.09;5075303;28;20025;-76
2021/07/19 10:33:10;;;;;;;5.65;2.70;;;;;;;32.46;35.64;102159.53;5071962;28;20021;-71
2021/07/19 10:35:36;;;;;;;5.03;2.70;;;;;;;32.69;35.22;102156.69;5070709;28;20029;-72
2021/07/19 10:38:08;;;;;;;9.30;3.58;;;;;;;32.87;35.02;102152.72;5074964;28;20028;-75
2021/07/19 10:40:36;;;;;;;8.15;2.70;;;;;;;33.06;34.35;102154.78;5075103;28;20074;-73
2021/07/19 10:43:15;;;;;;;4.90;2.65;;;;;;;33.46;33.76;102146.28;5075054;28;20024;-74
2021/07/19 10:45:43;;;;;;;7.60;3.13;;;;;;;33.25;34.02;102142.66;5075013;28;20123;-72
2021/07/19 10:48:09;;;;;;;7.10;3.15;;;;;;;33.02;34.49;102154.03;5074890;28;20382;-73
2021/07/19 10:50:40;;;;;;;6.68;2.70;;;;;;;32.89;34.65;102148.25;5074769;28;20035;-72
2021/07/19 10:53:20;;;;;;;10.68;3.35;;;;;;;33.25;33.72;102147.50;5074784;28;20021;-72
2021/07/19 10:56:06;;;;;;;5.60;2.75;;;;;;;33.57;33.66;102146.84;5074759;28;20545;-73
2021/07/19 10:59:26;;;;;;;6.70;2.85;;;;;;;32.49;35.57;102142.47;5089672;27;20422;-72
2021/07/19 11:01:57;;;;;;;10.57;2.72;;;;;;;32.79;35.10;102140.72;5076546;28;20494;-73
2021/07/19 11:04:23;;;;;;;4.47;2.25;;;;;;;32.89;34.98;102131.25;5072822;28;20066;-74
2021/07/19 11:06:56;;;;;;;7.70;3.15;;;;;;;32.96;34.90;102136.00;5074324;28;20068;-72
2021/07/19 11:09:33;;;;;;;9.10;2.90;;;;;;;33.12;34.52;102133.22;5073411;28;20363;-72
2021/07/19 11:12:17;;;;;;;3.67;2.25;;;;;;;32.87;34.75;102132.91;5073395;28;20017;-74
2021/07/19 11:14:46;;;;;;;7.38;2.53;;;;;;;33.23;34.41;102124.50;5072633;28;20704;-72
2021/07/19 11:17:13;;;;;;;8.68;2.83;;;;;;;32.96;34.90;102130.34;5071894;28;20501;-71
2021/07/19 11:19:42;;;;;;;5.65;2.03;;;;;;;33.34;33.98;102134.38;5071739;28;20082;-71
2021/07/19 11:22:13;;;;;;;6.90;2.80;;;;;;;33.40;33.96;102131.81;5071759;28;20112;-71
2021/07/19 11:24:49;;;;;;;9.25;3.10;;;;;;;33.64;33.42;102129.69;5072143;28;20028;-71
2021/07/19 11:27:22;;;;;;;7.10;2.70;;;;;;;34.24;32.63;102126.66;5073823;28;20123;-72
2021/07/19 11:30:08;;;;;;;5.97;2.63;;;;;;;33.72;33.25;102127.50;5072087;28;20137;-71
2021/07/19 11:32:34;;;;;;;5.32;2.97;;;;;;;33.59;33.52;102124.53;5073026;28;20024;-74
2021/07/19 11:35:09;;;;;;;7.43;3.38;;;;;;;33.16;34.23;102130.31;5071606;28;20040;-71
2021/07/19 11:37:36;;;;;;;19.77;4.10;;;;;;;32.05;36.67;102137.19;5071295;28;20048;-71
2021/07/19 11:40:04;;;;;;;5.10;2.80;;;;;;;32.03;36.93;102123.44;5072208;28;20020;-71
2021/07/19 11:42:36;;;;;;;8.27;3.10;;;;;;;32.38;36.26;102119.25;5069778;28;20098;-70
2021/07/19 11:45:07;;;;;;;6.63;2.88;;;;;;;32.74;35.45;102118.59;5070775;28;20517;-70
2021/07/19 11:47:39;;;;;;;5.28;2.45;;;;;;;32.90;35.20;102124.38;5071654;28;20085;-73
2021/07/19 11:50:06;;;;;;;6.90;2.88;;;;;;;33.10;35.42;102119.50;5071230;28;20016;-70
2021/07/19 11:52:32;;;;;;;7.95;3.15;;;;;;;33.18;34.94;102120.16;5071903;28;20032;-72
2021/07/19 11:54:59;;;;;;;15.82;4.65;;;;;;;33.49;34.62;102128.44;5076438;28;20032;-70
2021/07/19 11:57:25;;;;;;;9.50;3.20;;;;;;;33.32;34.61;102128.31;5081095;28;20052;-74
2021/07/19 11:59:51;;;;;;;8.20;3.13;;;;;;;33.29;34.81;102129.22;5070992;28;20482;-70
2021/07/19 12:02:26;;;;;;;5.43;2.53;;;;;;;33.16;35.10;102133.13;5071887;28;20036;-72
2021/07/19 12:04:52;;;;;;;7.22;3.13;;;;;;;33.00;35.36;102126.19;5071549;28;20028;-71
2021/07/19 12:07:18;;;;;;;5.72;2.58;;;;;;;32.97;35.38;102118.56;5072452;28;20592;-71
2021/07/19 12:09:45;;;;;;;4.32;2.67;;;;;;;33.28;34.91;102121.16;5064226;28;20082;-71
2021/07/19 12:12:12;;;;;;;7.35;3.17;;;;;;;33.49;34.43;102115.06;5056745;28;20039;-71
2021/07/19 12:14:38;;;;;;;7.22;2.65;;;;;;;33.42;34.81;102117.25;5056600;28;20021;-74
2021/07/19 12:17:05;;;;;;;7.13;2.50;;;;;;;33.34;34.81;102116.56;5057960;28;20029;-75
2021/07/19 12:19:30;;;;;;;7.47;3.47;;;;;;;33.05;35.28;102114.34;5058309;28;20024;-73
2021/07/19 12:21:59;;;;;;;5.18;2.90;;;;;;;33.10;35.12;102118.69;5058124;28;20012;-73
2021/07/19 12:24:27;;;;;;;5.03;2.67;;;;;;;32.68;35.65;102115.47;5057931;28;20021;-72
2021/07/19 12:26:55;;;;;;;7.15;2.85;;;;;;;32.91;35.72;102122.34;5058747;28;20043;-72
2021/07/19 12:29:29;;;;;;;5.40;2.50;;;;;;;33.02;35.63;102118.03;5057772;28;20120;-72
2021/07/19 12:31:59;;;;;;;6.07;2.53;;;;;;;33.23;35.31;102107.50;5057601;28;20060;-72
2021/07/19 12:34:27;;;;;;;9.25;2.95;;;;;;;32.99;35.68;102115.28;5058188;28;20028;-72
2021/07/19 12:36:59;;;;;;;9.32;2.80;;;;;;;33.10;35.32;102113.84;5058037;28;20094;-72
2021/07/19 12:39:29;;;;;;;7.22;3.00;;;;;;;33.15;35.39;102108.88;5057119;28;20123;-72
2021/07/19 12:41:56;;;;;;;13.68;2.97;;;;;;;32.71;36.06;102113.78;5057682;28;20029;-72
2021/07/19 12:44:27;;;;;;;7.28;3.53;;;;;;;32.93;35.85;102114.19;5056942;28;20028;-72
2021/07/19 12:46:53;;;;;;;6.80;2.60;;;;;;;33.18;35.20;102120.16;5070201;28;20025;-73
2021/07/19 12:49:45;;;;;;;9.10;2.85;;;;;;;33.24;34.68;102118.38;5073454;28;20036;-73
2021/07/19 12:52:16;;;;;;;7.78;2.97;;;;;;;33.68;34.31;102116.22;5071315;28;20048;-72
2021/07/19 12:55:00;;;;;;;6.88;2.80;;;;;;;33.80;33.44;102094.91;5071149;28;20469;-72
2021/07/19 12:57:27;;;;;;;7.10;2.85;;;;;;;33.52;34.15;102114.16;5071165;28;20589;-73
2021/07/19 12:59:53;;;;;;;6.28;2.30;;;;;;;33.88;33.42;102116.16;5073910;28;20123;-72
2021/07/19 13:02:20;;;;;;;8.95;3.00;;;;;;;33.96;33.37;102106.28;5074143;28;20104;-72
2021/07/19 13:04:55;;;;;;;4.80;2.40;;;;;;;33.89;33.46;102106.41;5074257;28;20071;-71
2021/07/19 13:07:32;;;;;;;5.38;2.40;;;;;;;34.10;33.32;102100.25;5073122;28;20504;-71
2021/07/19 13:10:09;;;;;;;4.97;2.10;;;;;;;33.79;33.27;102102.59;5070209;28;20024;-73
2021/07/19 13:12:36;;;;;;;5.50;2.40;;;;;;;34.10;33.32;102099.44;5072526;28;20052;-75
2021/07/19 13:15:06;;;;;;;9.60;2.38;;;;;;;34.41;32.89;102094.19;5072718;28;20101;-75
2021/07/19 13:17:32;;;;;;;;;;;;;;;34.44;32.50;102090.47;5073054;28;20356;-72
2021/07/19 13:20:04;;;;;;;13.10;3.97;;;;;;;34.40;32.75;102087.72;5073019;28;19912;-71
2021/07/19 13:22:32;;;;;;;6.45;2.90;;;;;;;34.64;32.16;102088.28;5073048;28;20067;-71
2021/07/19 13:24:59;;;;;;;9.35;2.95;;;;;;;34.48;32.38;102091.19;5073759;28;20048;-70
2021/07/19 13:27:30;;;;;;;4.32;2.40;;;;;;;34.53;32.28;102086.97;5073719;28;20356;-71
2021/07/19 13:29:59;;;;;;;5.38;2.47;;;;;;;34.39;32.66;102088.16;5073685;28;20020;-70
2021/07/19 13:32:27;;;;;;;8.77;2.88;;;;;;;34.36;32.31;102089.03;5073650;28;20055;-70
2021/07/19 13:34:56;;;;;;;5.10;2.03;;;;;;;34.24;32.01;102086.94;5073688;28;20020;-71
2021/07/19 13:37:23;;;;;;;19.58;4.45;;;;;;;34.49;32.19;102087.88;5073488;28;20111;-70
2021/07/19 13:39:49;;;;;;;9.63;2.65;;;;;;;34.38;32.28;102092.22;5073443;28;20039;-70
2021/07/19 13:42:15;;;;;;;3.55;2.15;;;;;;;34.17;33.09;102088.72;5073675;28;20020;-71
2021/07/19 13:44:42;;;;;;;6.60;2.58;;;;;;;34.07;32.85;102089.78;5073497;28;20264;-72
2021/07/19 13:47:08;;;;;;;7.38;3.00;;;;;;;34.34;32.31;102085.84;5058818;28;20621;-72
2021/07/19 13:49:35;;;;;;;6.85;2.70;;;;;;;34.31;32.69;102086.72;5057222;28;20029;-73
2021/07/19 13:52:02;;;;;;;6.82;2.08;;;;;;;34.55;32.22;102088.16;5056488;28;20054;-73
2021/07/19 13:54:28;;;;;;;5.57;2.40;;;;;;;34.39;32.02;102082.47;5056556;28;20020;-73
2021/07/19 13:56:54;;;;;;;5.00;2.67;;;;;;;34.44;32.09;102084.78;5056552;28;20100;-72
2021/07/19 13:59:19;;;;;;;8.07;3.40;;;;;;;34.54;31.97;102083.72;5061488;28;20033;-73
2021/07/19 14:01:46;;;;;;;6.45;2.42;;;;;;;34.53;32.40;102075.63;5053121;28;20017;-72
2021/07/19 14:04:13;;;;;;;5.25;2.70;;;;;;;34.45;32.77;102083.53;5054266;28;20017;-72
2021/07/19 14:06:39;;;;;;;9.77;3.13;;;;;;;34.67;32.30;102084.53;5053844;28;20417;-73
2021/07/19 14:09:06;;;;;;;7.38;3.15;;;;;;;34.68;31.91;102080.44;5054279;28;20103;-72
2021/07/19 14:11:32;;;;;;;11.85;3.20;;;;;;;34.83;31.55;102082.88;5053841;28;20024;-72
2021/07/19 14:13:58;;;;;;;10.20;3.50;;;;;;;35.01;31.19;102086.03;5055622;28;20060;-73
2021/07/19 14:16:24;;;;;;;6.38;2.65;;;;;;;35.03;31.24;102075.03;5055213;28;20033;-73
2021/07/19 14:18:50;;;;;;;5.38;2.78;;;;;;;35.15;31.60;102079.94;5055926;28;20047;-73
2021/07/19 14:21:16;;;;;;;6.10;2.38;;;;;;;34.82;32.44;102067.09;5056261;28;20024;-73
2021/07/19 14:23:42;;;;;;;6.65;2.35;;;;;;;34.87;31.76;102069.41;5055675;28;20099;-72
2021/07/19 14:26:08;;;;;;;5.10;3.25;;;;;;;34.85;32.14;102074.75;5055950;28;20047;-72
2021/07/19 14:28:33;;;;;;;9.20;2.75;;;;;;;34.77;31.96;102065.63;5056193;28;20028;-72
2021/07/19 14:31:01;;;;;;;17.13;4.30;;;;;;;34.70;32.67;102080.81;5055161;28;20594;-71
2021/07/19 14:33:26;;;;;;;12.25;3.58;;;;;;;34.84;32.48;102068.25;5055832;28;20070;-71
2021/07/19 14:35:55;;;;;;;9.18;3.00;;;;;;;35.31;31.62;102070.53;5055153;28;20029;-71
2021/07/19 14:38:24;;;;;;;6.47;2.75;;;;;;;34.65;32.64;102072.84;5055676;28;20031;-71
2021/07/19 14:40:50;;;;;;;5.43;2.90;;;;;;;34.56;32.83;102066.22;5054643;28;20047;-72
2021/07/19 14:43:15;;;;;;;8.77;2.90;;;;;;;34.83;32.66;102065.84;5055377;28;20451;-71
2021/07/19 14:45:41;;;;;;;5.47;2.55;;;;;;;35.14;32.09;102066.16;5054715;28;21000;-71
2021/07/19 14:48:07;;;;;;;9.23;3.08;;;;;;;35.19;31.71;102066.41;5055576;28;20123;-74
2021/07/19 14:50:34;;;;;;;6.47;2.40;;;;;;;34.95;32.00;102062.28;5054732;28;20024;-71
2021/07/19 14:53:00;;;;;;;7.75;3.25;;;;;;;34.59;33.01;102068.97;5054931;28;20044;-72
2021/07/19 14:55:26;;;;;;;6.03;3.17;;;;;;;34.44;33.15;102060.03;5054768;28;20573;-71
2021/07/19 14:57:52;;;;;;;7.97;2.80;;;;;;;34.55;32.62;102056.13;5054350;28;20517;-72
2021/07/19 15:00:18;;;;;;;8.00;2.65;;;;;;;34.65;32.54;102055.81;5055487;28;20055;-73
2021/07/19 15:02:44;;;;;;;7.85;3.40;;;;;;;34.75;32.15;102054.69;5055127;28;20025;-71
2021/07/19 15:05:11;;;;;;;9.40;3.45;;;;;;;34.65;32.81;102055.03;5065285;28;20032;-73
2021/07/19 15:07:37;;;;;;;6.15;2.42;;;;;;;34.46;32.77;102048.25;5072386;28;20035;-70
2021/07/19 15:10:05;;;;;;;3.50;2.00;;;;;;;34.41;32.77;102052.44;5072226;28;20381;-73
2021/07/19 15:12:31;;;;;;;4.50;2.25;;;;;;;34.76;32.12;102058.34;5072302;28;20479;-71
2021/07/19 15:14:57;;;;;;;7.18;2.92;;;;;;;34.84;31.76;102058.91;5072519;28;20021;-71
2021/07/19 15:17:24;;;;;;;7.18;2.42;;;;;;;34.88;32.31;102053.94;5072139;28;20025;-72
2021/07/19 15:19:49;;;;;;;6.28;3.08;;;;;;;35.01;31.74;102043.44;5072133;28;20383;-75
2021/07/19 15:22:15;;;;;;;11.15;2.97;;;;;;;35.06;31.89;102050.59;5072172;28;20025;-72
2021/07/19 15:24:41;;;;;;;51.33;6.65;;;;;;;35.28;31.29;102046.63;5072151;28;20027;-71
2021/07/19 15:27:06;;;;;;;9.88;2.60;;;;;;;35.13;31.78;102047.53;5070921;28;20020;-72
2021/07/19 15:29:32;;;;;;;6.90;2.78;;;;;;;34.88;31.83;102040.53;5071109;28;20429;-71
2021/07/19 15:31:58;;;;;;;13.18;3.65;;;;;;;35.14;31.72;102043.44;5072133;28;20025;-76
2021/07/19 15:34:23;;;;;;;4.43;2.40;;;;;;;35.34;31.82;102040.41;5071990;28;20048;-72
2021/07/19 15:36:49;;;;;;;7.32;3.30;;;;;;;35.39;31.33;102034.16;5072009;28;20031;-71
2021/07/19 15:39:15;;;;;;;4.45;2.20;;;;;;;35.29;31.72;102036.06;5070350;28;20029;-72
2021/07/19 15:41:41;;;;;;;5.75;3.05;;;;;;;35.09;31.68;102024.94;5067210;28;20909;-72
2021/07/19 15:44:07;;;;;;;8.75;2.47;;;;;;;34.83;32.48;102024.06;5054975;28;20063;-73
2021/07/19 15:46:34;;;;;;;4.45;2.40;;;;;;;34.81;32.55;102022.94;5058249;28;20579;-73
2021/07/19 15:49:00;;;;;;;5.20;2.30;;;;;;;34.94;32.39;102021.75;5059388;28;20505;-72
2021/07/19 15:51:25;;;;;;;33.30;6.22;;;;;;;35.20;32.08;102025.38;5057562;28;20028;-72
2021/07/19 15:53:51;;;;;;;6.35;2.28;;;;;;;35.13;31.88;102016.28;5058416;28;20033;-72
2021/07/19 15:56:17;;;;;;;5.63;2.22;;;;;;;35.00;32.46;102014.25;5066173;28;20020;-71
2021/07/19 15:58:42;;;;;;;5.70;2.30;;;;;;;34.86;32.31;102011.81;5075217;28;20467;-73
2021/07/19 16:01:08;;;;;;;5.57;2.50;;;;;;;34.82;32.47;102013.16;5075139;28;20032;-72
2021/07/19 16:03:34;;;;;;;6.53;2.03;;;;;;;34.85;31.96;102013.06;5075389;28;20429;-73
2021/07/19 16:05:59;;;;;;;5.10;2.63;;;;;;;34.78;32.13;102018.16;5075395;28;20020;-71
2021/07/19 16:08:25;;;;;;;6.60;1.90;;;;;;;34.88;32.37;102022.72;5073954;28;20496;-72
2021/07/19 16:10:50;;;;;;;33.00;25.40;;;;;;;34.79;32.79;102008.41;5074122;28;20089;-75
2021/07/19 16:13:16;;;;;;;19.65;4.55;;;;;;;34.91;32.53;102011.28;5074834;28;20020;-71
2021/07/19 16:15:41;;;;;;;6.07;2.75;;;;;;;34.72;32.51;102009.41;5075072;28;20029;-74
2021/07/19 16:18:07;;;;;;;4.80;2.30;;;;;;;34.85;32.44;102006.59;5074993;28;20077;-70
2021/07/19 16:20:34;;;;;;;7.18;2.53;;;;;;;34.82;32.49;102013.16;5074890;28;20036;-74
2021/07/19 16:23:00;;;;;;;7.03;2.22;;;;;;;34.79;32.12;102000.69;5075058;28;20025;-72
2021/07/19 16:25:27;;;;;;;4.95;2.72;;;;;;;34.57;32.54;102009.03;5066841;28;20024;-75
2021/07/19 16:27:53;;;;;;;3.22;2.35;;;;;;;34.72;32.42;102003.72;5053982;28;20091;-73
2021/07/19 16:30:19;;;;;;;22.83;18.20;;;;;;;34.76;32.28;101999.53;5057016;28;20793;-84
2021/07/19 16:32:44;;;;;;;39.25;25.25;;;;;;;34.76;32.54;102008.06;5057115;28;20024;-73
2021/07/19 16:35:12;;;;;;;11.35;7.40;;;;;;;34.66;32.40;101997.81;5057093;28;20056;-72
2021/07/19 16:37:37;;;;;;;15.05;10.27;;;;;;;34.48;32.66;102006.03;5056668;28;20031;-86
2021/07/19 16:40:04;;;;;;;51.78;31.45;;;;;;;34.82;32.39;101996.13;5058510;28;20398;-72
2021/07/19 16:42:30;;;;;;;12.68;4.32;;;;;;;34.74;32.51;102006.91;5057785;28;20024;-73
2021/07/19 16:44:55;;;;;;;4.18;2.10;;;;;;;34.35;32.86;101996.66;5056366;28;20045;-73
2021/07/19 16:47:21;;;;;;;14.25;8.55;;;;;;;34.36;32.70;101996.19;5057396;28;20042;-87
2021/07/19 16:49:47;;;;;;;28.00;13.35;;;;;;;34.44;33.10;101994.00;5056205;28;20040;-79
2021/07/19 16:52:12;;;;;;;11.65;4.82;;;;;;;34.45;32.61;101992.75;5056303;28;20077;-84
2021/07/19 16:54:38;;;;;;;9.98;5.60;;;;;;;34.39;32.95;101989.66;5057323;28;20172;-73
2021/07/19 16:57:03;;;;;;;8.60;2.70;;;;;;;34.30;33.04;101989.47;5054575;28;20020;-73
2021/07/19 16:59:29;;;;;;;11.23;3.75;;;;;;;34.31;32.72;101991.09;5055543;28;20044;-74
2021/07/19 17:01:55;;;;;;;8.60;3.03;;;;;;;33.90;33.35;101984.09;5056830;28;20115;-73
2021/07/19 17:04:20;;;;;;;6.25;2.20;;;;;;;33.98;33.21;101984.69;5058343;28;20067;-75
2021/07/19 17:06:46;;;;;;;6.85;2.35;;;;;;;33.80;33.38;101987.19;5064022;28;20047;-71
2021/07/19 17:09:12;;;;;;;7.50;1.80;;;;;;;33.83;33.32;101989.91;5069854;28;20394;-87
2021/07/19 17:11:38;;;;;;;3.13;2.10;;;;;;;33.84;33.38;101982.22;5071996;28;20117;-80
2021/07/19 17:14:03;;;;;;;4.32;2.22;;;;;;;33.65;33.80;101981.09;5068173;28;20028;-81
2021/07/19 17:16:30;;;;;;;10.50;3.67;;;;;;;33.46;34.35;101976.31;5072391;27;20033;-85
2021/07/19 17:18:55;;;;;;;10.30;2.90;;;;;;;33.49;34.17;101970.56;5072291;28;20491;-88
2021/07/19 17:21:21;;;;;;;2.67;1.70;;;;;;;33.41;34.29;101977.63;5073017;28;20053;-84
2021/07/19 17:23:47;;;;;;;6.03;2.08;;;;;;;33.17;34.44;101976.16;5072880;28;20055;-81
2021/07/19 17:26:12;;;;;;;16.70;2.67;;;;;;;33.31;34.28;101970.94;5072751;28;20043;-92
2021/07/19 17:28:38;;;;;;;7.07;2.72;;;;;;;33.05;35.00;101974.81;5071625;28;20024;-83
2021/07/19 17:31:04;;;;;;;9.23;2.75;;;;;;;32.69;35.44;101969.13;5070613;28;20497;-74
2021/07/19 17:33:30;;;;;;;8.68;2.88;;;;;;;32.89;35.28;101967.09;5072272;28;20025;-72
2021/07/19 17:35:56;;;;;;;3.00;1.80;;;;;;;32.94;35.31;101966.56;5071678;27;20444;-75
2021/07/19 17:38:25;;;;;;;4.15;1.60;;;;;;;32.87;35.40;101958.22;5065912;28;20036;-76
2021/07/19 17:40:58;;;;;;;3.40;1.60;;;;;;;32.61;35.31;101954.31;5071034;28;20029;-84
2021/07/19 17:43:24;;;;;;;6.03;2.55;;;;;;;32.49;35.64;101955.78;5072818;28;20028;-85
2021/07/19 17:45:50;;;;;;;5.75;2.90;;;;;;;32.58;35.40;101958.84;5071625;27;20459;-76
2021/07/19 17:48:16;;;;;;;3.20;1.90;;;;;;;32.50;35.80;101945.28;5070570;28;20085;-78
2021/07/19 17:50:42;;;;;;;4.82;2.05;;;;;;;32.29;35.84;101946.47;5069632;27;20442;-84
2021/07/19 17:53:08;;;;;;;5.00;2.20;;;;;;;32.37;35.51;101950.78;5071023;28;20035;-80
2021/07/19 17:55:35;;;;;;;6.93;2.50;;;;;;;32.33;35.58;101946.44;5069765;28;20036;-87
2021/07/19 17:58:00;;;;;;;5.15;2.38;;;;;;;32.29;36.00;101941.63;5067160;28;20031;-77
2021/07/19 18:00:28;;;;;;;2.85;1.65;;;;;;;32.35;35.63;101943.97;5068861;27;20041;-75
2021/07/19 18:02:55;;;;;;;7.05;2.53;;;;;;;32.26;36.04;101939.66;5071146;28;20099;-76
2021/07/19 18:05:23;;;;;;;3.55;1.77;;;;;;;32.42;35.52;101938.97;5060962;28;20048;-74
2021/07/19 18:07:49;;;;;;;9.00;2.60;;;;;;;32.37;35.91;101942.31;5053268;28;20705;-84
2021/07/19 18:10:17;;;;;;;9.25;2.80;;;;;;;32.49;35.70;101933.16;5054944;28;20031;-73
2021/07/19 18:12:45;;;;;;;6.40;2.33;;;;;;;32.84;34.99;101945.72;5052602;28;20029;-74
2021/07/19 18:15:12;;;;;;;3.72;1.95;;;;;;;32.93;34.70;101944.34;5050985;28;20028;-73
2021/07/19 18:17:38;;;;;;;5.88;2.08;;;;;;;32.49;35.37;101950.13;5053758;28;20045;-76
2021/07/19 18:20:14;;;;;;;7.38;2.33;;;;;;;32.64;35.50;101947.00;5053929;28;20038;-75
2021/07/19 18:33:06;;;;;;;7.13;2.58;;;;;;;32.26;35.95;101942.47;5051698;28;20846;-78
2021/07/19 18:35:33;;;;;;;3.95;2.13;;;;;;;32.04;36.25;101952.59;5052676;27;20033;-80
2021/07/19 18:38:00;;;;;;;6.68;2.50;;;;;;;32.00;36.32;101951.88;5052679;28;20025;-87
2021/07/19 18:40:26;;;;;;;6.25;2.25;;;;;;;32.05;36.36;101954.22;5052419;28;20127;-77
2021/07/19 18:42:53;;;;;;;6.03;2.05;;;;;;;32.19;36.22;101944.66;5050761;28;20033;-72
2021/07/19 18:45:20;;;;;;;8.20;2.13;;;;;;;32.07;36.36;101950.97;5049779;28;20099;-72
2021/07/19 18:47:47;;;;;;;8.55;2.60;;;;;;;32.07;35.87;101956.63;5052154;28;20764;-72
2021/07/19 18:50:13;;;;;;;6.45;3.00;;;;;;;32.14;35.75;101962.13;5060527;28;20504;-70
2021/07/19 18:52:39;;;;;;;4.70;1.95;;;;;;;32.01;35.84;101953.47;5070527;27;20037;-87
2021/07/19 18:55:07;;;;;;;7.72;2.35;;;;;;;32.10;35.62;101941.59;5071651;28;20021;-91
2021/07/19 18:57:33;;;;;;;7.78;2.95;;;;;;;32.07;35.73;101948.13;5065976;28;20184;-73
2021/07/19 18:59:59;;;;;;;5.07;2.38;;;;;;;32.07;36.03;101939.66;5069814;28;20087;-89
2021/07/19 19:02:25;;;;;;;5.78;2.40;;;;;;;31.89;36.31;101946.44;5070237;28;20039;-90
2021/07/19 19:04:51;;;;;;;4.65;2.08;;;;;;;31.92;36.37;101948.41;5055648;28;20594;-86
2021/07/19 19:07:16;;;;;;;11.40;3.40;;;;;;;31.53;37.54;101937.75;5055478;28;20151;-80
2021/07/19 19:09:43;;;;;;;5.50;2.63;;;;;;;31.61;37.36;101941.25;5053339;28;20012;-73
2021/07/19 19:12:10;;;;;;;9.20;2.95;;;;;;;31.47;37.53;101948.75;5053319;28;20049;-73
2021/07/19 19:14:37;;;;;;;2.70;1.98;;;;;;;31.39;37.43;101943.66;5048889;28;20386;-74
2021/07/19 19:17:03;;;;;;;6.95;2.47;;;;;;;31.33;37.47;101939.72;5056599;28;20068;-73
2021/07/19 19:19:28;;;;;;;2.65;1.80;;;;;;;31.18;37.64;101941.94;5055372;28;20029;-71
2021/07/19 19:21:54;;;;;;;4.50;1.98;;;;;;;30.96;38.48;101938.63;5057918;28;20450;-71
2021/07/19 19:24:20;;;;;;;9.48;2.13;;;;;;;30.97;38.33;101937.38;5068949;28;20023;-70
2021/07/19 19:26:45;;;;;;;8.05;2.88;;;;;;;30.94;37.77;101933.41;5076958;28;20020;-72
2021/07/19 19:29:11;;;;;;;6.70;2.10;;;;;;;30.65;38.50;101944.25;5076249;28;20024;-88
2021/07/19 19:31:36;;;;;;;5.65;2.35;;;;;;;31.05;37.75;101935.25;5076922;28;20043;-70
2021/07/19 19:34:02;;;;;;;4.70;1.73;;;;;;;31.02;37.70;101927.66;5076318;28;20032;-70
2021/07/19 19:36:27;;;;;;;77.38;9.63;;;;;;;31.08;37.54;101938.06;5075053;28;20074;-70
2021/07/19 19:38:54;;;;;;;5.72;1.90;;;;;;;31.24;37.52;101937.44;5076211;28;20020;-71
2021/07/19 19:41:19;;;;;;;11.15;3.20;;;;;;;31.06;37.47;101940.50;5075970;28;20036;-71
2021/07/19 19:43:45;;;;;;;13.10;3.67;;;;;;;30.71;38.59;101936.16;5075855;28;20036;-71
2021/07/19 19:46:12;;;;;;;9.60;2.80;;;;;;;30.76;38.65;101926.41;5074715;28;20064;-71
2021/07/19 19:48:38;;;;;;;6.55;2.50;;;;;;;30.83;38.44;101927.13;5076137;28;20032;-71
2021/07/19 19:51:06;;;;;;;7.53;2.83;;;;;;;30.62;38.72;101930.22;5076067;28;20027;-72
2021/07/19 19:53:32;;;;;;;11.00;3.10;;;;;;;30.66;38.78;101937.41;5075813;28;20408;-71
2021/07/19 19:56:02;;;;;;;9.65;2.60;;;;;;;30.64;38.95;101934.19;5075764;28;20028;-71
2021/07/19 19:58:30;;;;;;;5.28;2.70;;;;;;;30.77;38.63;101939.31;5075494;28;20036;-71
2021/07/19 20:00:56;;;;;;;6.95;2.67;;;;;;;30.79;38.51;101926.38;5075942;28;20102;-93
2021/07/19 20:03:21;;;;;;;6.60;2.50;;;;;;;30.69;38.38;101932.19;5075770;28;20446;-71
2021/07/19 20:05:47;;;;;;;9.82;2.75;;;;;;;30.60;38.94;101927.78;5062638;28;20061;-83
2021/07/19 20:08:12;;;;;;;10.50;3.67;;;;;;;30.59;38.98;101929.03;5058219;28;20025;-72
2021/07/19 20:10:39;;;;;;;8.35;2.65;;;;;;;30.65;39.22;101932.19;5055752;28;20028;-72
2021/07/19 20:13:05;;;;;;;10.00;3.17;;;;;;;30.09;40.47;101935.28;5056748;28;20436;-72
2021/07/19 20:15:34;;;;;;;4.85;2.55;;;;;;;29.93;40.38;101931.41;5056993;28;20437;-72
2021/07/19 20:18:01;;;;;;;5.80;2.50;;;;;;;29.81;41.13;101932.72;5058311;28;20748;-72
2021/07/19 20:20:27;;;;;;;6.22;2.63;;;;;;;29.76;41.27;101933.16;5058703;28;20117;-71
2021/07/19 20:22:52;;;;;;;5.18;2.10;;;;;;;29.73;40.95;101939.63;5057961;28;20024;-72
2021/07/19 20:25:25;;;;;;;9.38;2.13;;;;;;;29.40;41.70;101930.63;5058203;28;20093;-72
2021/07/19 20:28:00;;;;;;;4.80;2.35;;;;;;;29.27;42.09;101940.78;5057519;28;20024;-72
2021/07/19 20:30:28;;;;;;;5.82;2.40;;;;;;;29.35;41.91;101944.34;5058355;28;20071;-72
2021/07/19 20:32:55;;;;;;;4.68;2.10;;;;;;;29.34;42.20;101939.94;5058489;28;20099;-73
2021/07/19 20:35:21;;;;;;;4.82;2.45;;;;;;;29.40;41.85;101943.91;5058058;28;20380;-72
2021/07/19 20:37:48;;;;;;;7.07;2.25;;;;;;;29.28;42.09;101948.81;5062438;28;20130;-72
2021/07/19 20:40:17;;;;;;;9.98;3.22;;;;;;;29.14;42.40;101951.72;5057548;28;20013;-71
2021/07/19 20:42:43;;;;;;;5.97;2.53;;;;;;;29.19;42.19;101953.31;5057058;28;20020;-71
2021/07/19 20:45:11;;;;;;;5.43;3.20;;;;;;;29.08;42.60;101956.19;5057357;28;20035;-71
2021/07/19 20:47:38;;;;;;;8.13;2.85;;;;;;;29.06;42.55;101950.16;5057700;28;20054;-71
2021/07/19 20:50:12;;;;;;;3.95;2.67;;;;;;;28.84;43.08;101960.72;5056004;28;20446;-72
2021/07/19 20:52:39;;;;;;;6.85;2.78;;;;;;;29.02;42.60;101963.47;5056950;28;20028;-71
2021/07/19 20:55:07;;;;;;;6.72;2.70;;;;;;;29.03;42.41;101962.25;5057048;28;20045;-72